sensor_id;sensor_type;location;lat;lon;timestamp;pressure;altitude;pressure_sealevel;temperature;humidity
56600;BME280;51832;48.152;11.530;2022-09-01T00:02:43;95730.13;;;21.81;60.32
56600;BME280;51832;48.152;11.530;2022-09-01T00:07:44;95724.91;;;21.71;60.28
56600;BME280;51832;48.152;11.530;2022-09-01T00:12:44;95733.63;;;21.82;59.75
56600;BME280;51832;48.152;11.530;2022-09-01T00:17:45;95732.25;;;21.84;58.84
56600;BME280;51832;48.152;11.530;2022-09-01T00:22:45;95729.06;;;21.58;60.15
56600;BME280;51832;48.152;11.530;2022-09-01T00:27:49;95735.34;;;21.73;59.50
56600;BME280;51832;48.152;11.530;2022-09-01T00:32:50;95738.63;;;21.36;61.76
56600;BME280;51832;48.152;11.530;2022-09-01T00:37:51;95728.97;;;21.40;63.13
56600;BME280;51832;48.152;11.530;2022-09-01T00:42:51;95728.81;;;21.31;61.53
56600;BME280;51832;48.152;11.530;2022-09-01T00:47:52;95724.72;;;20.71;62.54
56600;BME280;51832;48.152;11.530;2022-09-01T00:52:54;95723.06;;;21.09;61.79
56600;BME280;51832;48.152;11.530;2022-09-01T00:57:55;95717.97;;;21.12;62.20
56600;BME280;51832;48.152;11.530;2022-09-01T01:02:56;95719.84;;;21.41;61.10
56600;BME280;51832;48.152;11.530;2022-09-01T01:07:58;95714.91;;;21.29;60.90
56600;BME280;51832;48.152;11.530;2022-09-01T01:13:00;95714.81;;;21.34;61.56
56600;BME280;51832;48.152;11.530;2022-09-01T01:18:02;95710.00;;;21.36;62.09
56600;BME280;51832;48.152;11.530;2022-09-01T01:23:21;95711.19;;;21.49;61.85
56600;BME280;51832;48.152;11.530;2022-09-01T01:28:27;95715.81;;;21.14;62.78
56600;BME280;51832;48.152;11.530;2022-09-01T01:33:36;95709.09;;;21.17;62.28
56600;BME280;51832;48.152;11.530;2022-09-01T01:38:41;95712.31;;;20.80;62.94
56600;BME280;51832;48.152;11.530;2022-09-01T01:43:42;95710.09;;;20.58;64.19
56600;BME280;51832;48.152;11.530;2022-09-01T01:48:43;95698.13;;;20.84;62.80
56600;BME280;51832;48.152;11.530;2022-09-01T01:53:45;95701.66;;;21.09;62.27
56600;BME280;51832;48.152;11.530;2022-09-01T01:58:46;95695.00;;;21.06;63.26
56600;BME280;51832;48.152;11.530;2022-09-01T02:03:46;95702.00;;;21.02;61.35
56600;BME280;51832;48.152;11.530;2022-09-01T02:08:47;95708.09;;;21.08;61.47
56600;BME280;51832;48.152;11.530;2022-09-01T02:13:47;95698.19;;;21.08;63.29
56600;BME280;51832;48.152;11.530;2022-09-01T02:18:49;95698.22;;;20.74;63.69
56600;BME280;51832;48.152;11.530;2022-09-01T02:23:55;95701.28;;;21.25;60.73
56600;BME280;51832;48.152;11.530;2022-09-01T02:29:02;95693.31;;;21.44;60.12
56600;BME280;51832;48.152;11.530;2022-09-01T02:34:05;95702.47;;;21.38;60.07
56600;BME280;51832;48.152;11.530;2022-09-01T02:39:10;95703.53;;;21.08;62.32
56600;BME280;51832;48.152;11.530;2022-09-01T02:44:10;95706.72;;;20.81;64.31
56600;BME280;51832;48.152;11.530;2022-09-01T02:49:17;95702.81;;;21.03;61.50
56600;BME280;51832;48.152;11.530;2022-09-01T02:54:20;95696.16;;;21.29;60.02
56600;BME280;51832;48.152;11.530;2022-09-01T02:59:24;95708.66;;;20.71;61.73
56600;BME280;51832;48.152;11.530;2022-09-01T03:04:25;95699.53;;;20.77;61.17
56600;BME280;51832;48.152;11.530;2022-09-01T03:09:26;95701.72;;;21.04;60.67
56600;BME280;51832;48.152;11.530;2022-09-01T03:14:27;95705.03;;;20.90;60.63
56600;BME280;51832;48.152;11.530;2022-09-01T03:19:29;95691.66;;;21.24;59.98
56600;BME280;51832;48.152;11.530;2022-09-01T03:24:33;95688.03;;;21.05;60.19
56600;BME280;51832;48.152;11.530;2022-09-01T03:29:34;95684.00;;;21.08;60.09
56600;BME280;51832;48.152;11.530;2022-09-01T03:34:34;95686.09;;;21.16;62.13
56600;BME280;51832;48.152;11.530;2022-09-01T03:39:35;95675.03;;;21.99;58.73
56600;BME280;51832;48.152;11.530;2022-09-01T03:44:36;95677.69;;;22.55;56.32
56600;BME280;51832;48.152;11.530;2022-09-01T03:49:40;95670.44;;;22.93;54.96
56600;BME280;51832;48.152;11.530;2022-09-01T03:54:43;95670.28;;;23.17;53.92
56600;BME280;51832;48.152;11.530;2022-09-01T03:59:44;95669.13;;;23.51;52.45
56600;BME280;51832;48.152;11.530;2022-09-01T04:04:44;95664.47;;;23.56;51.60
56600;BME280;51832;48.152;11.530;2022-09-01T04:09:45;95659.09;;;23.56;51.25
56600;BME280;51832;48.152;11.530;2022-09-01T04:14:45;95663.00;;;23.64;51.27
56600;BME280;51832;48.152;11.530;2022-09-01T04:19:47;95661.00;;;23.56;51.10
56600;BME280;51832;48.152;11.530;2022-09-01T04:24:48;95659.78;;;23.48;51.65
56600;BME280;51832;48.152;11.530;2022-09-01T04:29:48;95665.81;;;23.40;50.87
56600;BME280;51832;48.152;11.530;2022-09-01T04:34:49;95664.69;;;23.14;52.40
56600;BME280;51832;48.152;11.530;2022-09-01T04:39:54;95668.41;;;23.31;51.43
56600;BME280;51832;48.152;11.530;2022-09-01T04:44:55;95662.47;;;23.48;51.01
56600;BME280;51832;48.152;11.530;2022-09-01T04:49:57;95664.59;;;23.05;50.44
56600;BME280;51832;48.152;11.530;2022-09-01T04:54:59;95668.44;;;21.44;55.38
56600;BME280;51832;48.152;11.530;2022-09-01T05:00:02;95673.38;;;21.03;57.24
56600;BME280;51832;48.152;11.530;2022-09-01T05:05:03;95670.47;;;20.65;58.57
56600;BME280;51832;48.152;11.530;2022-09-01T05:10:07;95669.00;;;20.49;59.25
56600;BME280;51832;48.152;11.530;2022-09-01T05:15:08;95674.38;;;20.44;59.93
56600;BME280;51832;48.152;11.530;2022-09-01T05:20:09;95679.50;;;20.30;60.31
56600;BME280;51832;48.152;11.530;2022-09-01T05:25:11;95678.53;;;20.11;61.23
56600;BME280;51832;48.152;11.530;2022-09-01T05:30:12;95677.25;;;20.08;61.37
56600;BME280;51832;48.152;11.530;2022-09-01T05:35:16;95669.75;;;19.36;64.05
56600;BME280;51832;48.152;11.530;2022-09-01T05:40:16;95664.13;;;19.47;63.03
56600;BME280;51832;48.152;11.530;2022-09-01T05:45:17;95672.59;;;19.80;62.20
56600;BME280;51832;48.152;11.530;2022-09-01T05:50:19;95670.72;;;19.80;62.73
56600;BME280;51832;48.152;11.530;2022-09-01T05:55:20;95673.59;;;19.94;61.46
56600;BME280;51832;48.152;11.530;2022-09-01T06:00:22;95669.53;;;20.02;61.40
56600;BME280;51832;48.152;11.530;2022-09-01T06:05:22;95677.25;;;20.08;60.88
56600;BME280;51832;48.152;11.530;2022-09-01T06:10:23;95670.44;;;19.77;61.97
56600;BME280;51832;48.152;11.530;2022-09-01T06:15:24;95671.31;;;19.67;61.70
56600;BME280;51832;48.152;11.530;2022-09-01T06:20:24;95667.88;;;19.51;62.13
56600;BME280;51832;48.152;11.530;2022-09-01T06:25:25;95682.06;;;19.22;62.52
56600;BME280;51832;48.152;11.530;2022-09-01T06:30:29;95677.19;;;19.59;61.22
56600;BME280;51832;48.152;11.530;2022-09-01T06:35:32;95681.06;;;19.92;60.19
56600;BME280;51832;48.152;11.530;2022-09-01T06:40:33;95681.94;;;20.27;58.98
56600;BME280;51832;48.152;11.530;2022-09-01T06:45:41;95684.19;;;20.53;57.76
56600;BME280;51832;48.152;11.530;2022-09-01T06:50:42;95682.56;;;20.57;57.59
56600;BME280;51832;48.152;11.530;2022-09-01T06:55:47;95688.22;;;20.07;58.77
56600;BME280;51832;48.152;11.530;2022-09-01T07:00:47;95695.75;;;20.44;58.10
56600;BME280;51832;48.152;11.530;2022-09-01T07:05:48;95701.31;;;20.52;57.72
56600;BME280;51832;48.152;11.530;2022-09-01T07:10:50;95709.56;;;20.56;57.79
56600;BME280;51832;48.152;11.530;2022-09-01T07:15:53;95717.53;;;20.17;58.46
56600;BME280;51832;48.152;11.530;2022-09-01T07:20:54;95721.97;;;20.37;58.14
56600;BME280;51832;48.152;11.530;2022-09-01T07:25:54;95720.19;;;20.17;58.81
56600;BME280;51832;48.152;11.530;2022-09-01T07:30:59;95731.63;;;20.28;58.44
56600;BME280;51832;48.152;11.530;2022-09-01T07:36:00;95722.47;;;20.44;56.59
56600;BME280;51832;48.152;11.530;2022-09-01T07:41:07;95729.44;;;20.40;57.09
56600;BME280;51832;48.152;11.530;2022-09-01T07:46:07;95728.63;;;20.44;56.46
56600;BME280;51832;48.152;11.530;2022-09-01T07:51:11;95729.34;;;20.55;55.93
56600;BME280;51832;48.152;11.530;2022-09-01T07:56:13;95728.78;;;20.63;56.20
56600;BME280;51832;48.152;11.530;2022-09-01T08:01:17;95741.75;;;20.80;55.62
56600;BME280;51832;48.152;11.530;2022-09-01T08:06:19;95748.78;;;20.71;55.88
56600;BME280;51832;48.152;11.530;2022-09-01T08:11:26;95743.97;;;20.68;55.86
56600;BME280;51832;48.152;11.530;2022-09-01T08:22:24;95757.56;;;21.10;54.76
56600;BME280;51832;48.152;11.530;2022-09-01T08:27:25;95760.53;;;21.09;53.95
56600;BME280;51832;48.152;11.530;2022-09-01T08:32:26;95754.91;;;20.76;55.14
56600;BME280;51832;48.152;11.530;2022-09-01T08:37:27;95764.38;;;20.98;54.32
56600;BME280;51832;48.152;11.530;2022-09-01T08:42:43;95761.31;;;21.09;54.42
56600;BME280;51832;48.152;11.530;2022-09-01T08:47:51;95761.28;;;21.14;53.82
56600;BME280;51832;48.152;11.530;2022-09-01T08:53:10;95767.00;;;21.03;54.71
56600;BME280;51832;48.152;11.530;2022-09-01T08:58:16;95772.03;;;21.09;53.69
56600;BME280;51832;48.152;11.530;2022-09-01T09:35:17;95752.28;;;22.34;49.03
56600;BME280;51832;48.152;11.530;2022-09-01T09:40:24;95764.66;;;22.30;48.66
56600;BME280;51832;48.152;11.530;2022-09-01T09:45:26;95765.03;;;21.47;50.04
56600;BME280;51832;48.152;11.530;2022-09-01T09:50:30;95755.00;;;22.11;47.85
56600;BME280;51832;48.152;11.530;2022-09-01T09:55:31;95739.50;;;22.08;47.79
56600;BME280;51832;48.152;11.530;2022-09-01T10:00:33;95739.53;;;22.64;46.68
56600;BME280;51832;48.152;11.530;2022-09-01T10:05:47;95743.25;;;22.68;46.36
56600;BME280;51832;48.152;11.530;2022-09-01T10:10:51;95737.88;;;22.68;49.26
56600;BME280;51832;48.152;11.530;2022-09-01T10:15:57;95739.81;;;22.62;48.10
56600;BME280;51832;48.152;11.530;2022-09-01T10:21:06;95736.44;;;22.14;48.86
56600;BME280;51832;48.152;11.530;2022-09-01T10:31:14;95727.22;;;22.44;45.96
56600;BME280;51832;48.152;11.530;2022-09-01T10:36:15;95734.22;;;22.96;45.37
56600;BME280;51832;48.152;11.530;2022-09-01T10:46:57;95729.06;;;23.19;44.43
56600;BME280;51832;48.152;11.530;2022-09-01T10:51:59;95737.75;;;22.78;45.27
56600;BME280;51832;48.152;11.530;2022-09-01T10:57:00;95733.97;;;23.12;44.15
56600;BME280;51832;48.152;11.530;2022-09-01T11:17:31;95730.38;;;23.35;42.36
56600;BME280;51832;48.152;11.530;2022-09-01T11:22:44;95713.41;;;23.53;42.23
56600;BME280;51832;48.152;11.530;2022-09-01T11:32:52;95708.75;;;23.59;41.45
56600;BME280;51832;48.152;11.530;2022-09-01T11:38:02;95722.00;;;23.69;40.23
56600;BME280;51832;48.152;11.530;2022-09-01T11:43:07;95711.66;;;23.90;40.02
56600;BME280;51832;48.152;11.530;2022-09-01T11:48:10;95702.19;;;23.92;39.84
56600;BME280;51832;48.152;11.530;2022-09-01T11:53:14;95710.34;;;24.15;39.61
56600;BME280;51832;48.152;11.530;2022-09-01T12:03:28;95699.63;;;25.09;36.71
56600;BME280;51832;48.152;11.530;2022-09-01T12:08:38;95706.03;;;25.22;36.57
56600;BME280;51832;48.152;11.530;2022-09-01T12:13:40;95704.72;;;25.41;36.36
56600;BME280;51832;48.152;11.530;2022-09-01T12:18:55;95699.22;;;25.02;37.30
56600;BME280;51832;48.152;11.530;2022-09-01T12:24:15;95691.09;;;25.15;36.45
56600;BME280;51832;48.152;11.530;2022-09-01T12:29:17;95703.06;;;25.32;36.44
56600;BME280;51832;48.152;11.530;2022-09-01T12:39:37;95703.19;;;23.96;40.89
56600;BME280;51832;48.152;11.530;2022-09-01T12:49:45;95698.28;;;24.12;39.90
56600;BME280;51832;48.152;11.530;2022-09-01T12:54:48;95693.94;;;24.02;39.32
56600;BME280;51832;48.152;11.530;2022-09-01T13:10:44;95686.50;;;25.69;36.51
56600;BME280;51832;48.152;11.530;2022-09-01T13:15:47;95690.78;;;26.36;35.08
56600;BME280;51832;48.152;11.530;2022-09-01T13:20:50;95686.69;;;26.99;34.93
56600;BME280;51832;48.152;11.530;2022-09-01T13:25:51;95688.00;;;27.56;33.89
56600;BME280;51832;48.152;11.530;2022-09-01T13:30:55;95690.31;;;27.11;33.17
56600;BME280;51832;48.152;11.530;2022-09-01T13:35:58;95679.00;;;27.27;33.02
56600;BME280;51832;48.152;11.530;2022-09-01T13:40:59;95681.38;;;27.83;31.85
56600;BME280;51832;48.152;11.530;2022-09-01T13:46:00;95680.41;;;27.33;31.61
56600;BME280;51832;48.152;11.530;2022-09-01T13:51:01;95680.41;;;27.79;31.70
56600;BME280;51832;48.152;11.530;2022-09-01T13:56:01;95677.44;;;28.31;31.23
56600;BME280;51832;48.152;11.530;2022-09-01T14:01:02;95672.44;;;28.42;30.50
56600;BME280;51832;48.152;11.530;2022-09-01T14:06:04;95669.88;;;28.16;30.84
56600;BME280;51832;48.152;11.530;2022-09-01T14:11:05;95667.53;;;28.06;31.31
56600;BME280;51832;48.152;11.530;2022-09-01T14:16:10;95659.44;;;27.30;31.99
56600;BME280;51832;48.152;11.530;2022-09-01T14:21:12;95655.72;;;28.19;31.29
56600;BME280;51832;48.152;11.530;2022-09-01T14:26:14;95651.97;;;28.32;31.55
56600;BME280;51832;48.152;11.530;2022-09-01T14:31:17;95653.63;;;28.16;31.35
56600;BME280;51832;48.152;11.530;2022-09-01T14:36:22;95652.09;;;28.36;30.48
56600;BME280;51832;48.152;11.530;2022-09-01T14:41:23;95646.47;;;29.48;29.46
56600;BME280;51832;48.152;11.530;2022-09-01T14:46:24;95642.47;;;29.00;29.68
56600;BME280;51832;48.152;11.530;2022-09-01T14:51:27;95634.94;;;28.52;29.29
56600;BME280;51832;48.152;11.530;2022-09-01T14:56:28;95635.00;;;28.64;29.79
56600;BME280;51832;48.152;11.530;2022-09-01T15:01:29;95633.03;;;29.76;26.82
56600;BME280;51832;48.152;11.530;2022-09-01T15:06:30;95623.34;;;30.39;25.82
56600;BME280;51832;48.152;11.530;2022-09-01T15:11:31;95629.28;;;30.69;24.59
56600;BME280;51832;48.152;11.530;2022-09-01T15:16:31;95625.06;;;31.75;22.02
56600;BME280;51832;48.152;11.530;2022-09-01T15:21:41;95625.56;;;32.86;20.70
56600;BME280;51832;48.152;11.530;2022-09-01T15:26:42;95629.84;;;33.06;20.52
56600;BME280;51832;48.152;11.530;2022-09-01T15:31:44;95626.50;;;32.93;19.99
56600;BME280;51832;48.152;11.530;2022-09-01T15:36:45;95625.34;;;33.36;20.40
56600;BME280;51832;48.152;11.530;2022-09-01T15:41:45;95633.22;;;33.41;20.65
56600;BME280;51832;48.152;11.530;2022-09-01T15:46:46;95625.50;;;33.70;20.49
56600;BME280;51832;48.152;11.530;2022-09-01T15:51:46;95620.13;;;34.26;20.39
56600;BME280;51832;48.152;11.530;2022-09-01T15:56:47;95628.84;;;33.37;20.47
56600;BME280;51832;48.152;11.530;2022-09-01T16:01:48;95624.75;;;33.46;20.62
56600;BME280;51832;48.152;11.530;2022-09-01T16:06:49;95621.88;;;32.59;21.12
56600;BME280;51832;48.152;11.530;2022-09-01T16:11:50;95616.84;;;34.40;19.53
56600;BME280;51832;48.152;11.530;2022-09-01T16:27:22;95628.94;;;38.31;15.34
56600;BME280;51832;48.152;11.530;2022-09-01T16:32:24;95624.97;;;38.50;15.04
56600;BME280;51832;48.152;11.530;2022-09-01T16:37:40;95633.66;;;38.38;15.29
56600;BME280;51832;48.152;11.530;2022-09-01T16:42:50;95636.44;;;38.06;15.53
56600;BME280;51832;48.152;11.530;2022-09-01T16:47:58;95634.47;;;37.96;15.88
56600;BME280;51832;48.152;11.530;2022-09-01T17:03:33;95640.31;;;38.48;15.16
56600;BME280;51832;48.152;11.530;2022-09-01T17:08:48;95641.03;;;38.77;14.90
56600;BME280;51832;48.152;11.530;2022-09-01T17:13:51;95643.88;;;37.52;15.73
56600;BME280;51832;48.152;11.530;2022-09-01T17:18:53;95642.66;;;37.35;16.17
56600;BME280;51832;48.152;11.530;2022-09-01T17:29:45;95640.38;;;35.11;17.69
56600;BME280;51832;48.152;11.530;2022-09-01T17:45:27;95649.97;;;31.77;21.58
56600;BME280;51832;48.152;11.530;2022-09-01T17:50:44;95653.09;;;31.32;24.48
56600;BME280;51832;48.152;11.530;2022-09-01T17:56:04;95649.38;;;30.81;24.94
56600;BME280;51832;48.152;11.530;2022-09-01T18:01:14;95658.47;;;30.20;25.20
56600;BME280;51832;48.152;11.530;2022-09-01T18:11:39;95668.69;;;29.54;26.42
56600;BME280;51832;48.152;11.530;2022-09-01T18:22:07;95676.44;;;29.31;26.93
56600;BME280;51832;48.152;11.530;2022-09-01T18:27:09;95675.59;;;29.06;26.90
56600;BME280;51832;48.152;11.530;2022-09-01T18:48:11;95687.91;;;28.41;27.39
56600;BME280;51832;48.152;11.530;2022-09-01T19:04:04;95698.75;;;27.74;27.43
56600;BME280;51832;48.152;11.530;2022-09-01T19:09:31;95688.06;;;27.31;28.55
56600;BME280;51832;48.152;11.530;2022-09-01T19:15:12;95698.59;;;26.89;28.85
56600;BME280;51832;48.152;11.530;2022-09-01T19:20:52;95708.44;;;26.59;29.27
56600;BME280;51832;48.152;11.530;2022-09-01T19:26:01;95698.50;;;26.20;30.16
56600;BME280;51832;48.152;11.530;2022-09-01T19:36:07;95689.63;;;25.63;31.45
56600;BME280;51832;48.152;11.530;2022-09-01T19:41:21;95703.03;;;25.54;31.89
56600;BME280;51832;48.152;11.530;2022-09-01T19:46:35;95699.06;;;25.52;32.39
56600;BME280;51832;48.152;11.530;2022-09-01T19:51:53;95702.63;;;25.38;32.26
56600;BME280;51832;48.152;11.530;2022-09-01T20:07:43;95687.75;;;25.10;33.08
56600;BME280;51832;48.152;11.530;2022-09-01T20:18:29;95675.38;;;24.28;34.52
56600;BME280;51832;48.152;11.530;2022-09-01T20:23:52;95679.38;;;24.17;34.41
56600;BME280;51832;48.152;11.530;2022-09-01T20:29:10;95663.69;;;24.19;34.63
56600;BME280;51832;48.152;11.530;2022-09-01T20:39:43;95658.72;;;23.63;35.98
56600;BME280;51832;48.152;11.530;2022-09-01T20:50:12;95675.97;;;23.29;36.98
56600;BME280;51832;48.152;11.530;2022-09-01T21:00:25;95675.09;;;23.34;37.09
56600;BME280;51832;48.152;11.530;2022-09-01T21:05:38;95676.44;;;23.18;37.61
56600;BME280;51832;48.152;11.530;2022-09-01T21:16:01;95669.59;;;22.79;38.89
56600;BME280;51832;48.152;11.530;2022-09-01T21:21:29;95670.16;;;22.57;39.70
56600;BME280;51832;48.152;11.530;2022-09-01T21:26:34;95664.22;;;22.60;39.86
56600;BME280;51832;48.152;11.530;2022-09-01T21:31:37;95669.53;;;22.47;40.12
56600;BME280;51832;48.152;11.530;2022-09-01T21:36:37;95677.06;;;22.45;40.65
56600;BME280;51832;48.152;11.530;2022-09-01T21:41:37;95656.69;;;22.44;40.52
56600;BME280;51832;48.152;11.530;2022-09-01T21:46:38;95663.31;;;22.32;40.97
56600;BME280;51832;48.152;11.530;2022-09-01T21:51:40;95657.88;;;22.19;41.38
56600;BME280;51832;48.152;11.530;2022-09-01T21:56:41;95648.78;;;21.96;41.78
56600;BME280;51832;48.152;11.530;2022-09-01T22:01:41;95644.56;;;21.90;42.07
56600;BME280;51832;48.152;11.530;2022-09-01T22:06:42;95642.63;;;21.95;41.99
56600;BME280;51832;48.152;11.530;2022-09-01T22:11:42;95633.56;;;21.91;42.41
56600;BME280;51832;48.152;11.530;2022-09-01T22:16:43;95632.41;;;21.97;42.19
56600;BME280;51832;48.152;11.530;2022-09-01T22:21:44;95624.72;;;21.91;42.39
56600;BME280;51832;48.152;11.530;2022-09-01T22:26:46;95626.59;;;21.72;43.03
56600;BME280;51832;48.152;11.530;2022-09-01T22:31:47;95623.25;;;21.37;44.14
56600;BME280;51832;48.152;11.530;2022-09-01T22:36:48;95619.25;;;21.35;44.08
56600;BME280;51832;48.152;11.530;2022-09-01T22:41:49;95621.41;;;21.33;44.41
56600;BME280;51832;48.152;11.530;2022-09-01T22:46:49;95611.75;;;21.37;44.16
56600;BME280;51832;48.152;11.530;2022-09-01T22:51:50;95607.84;;;21.29;44.39
56600;BME280;51832;48.152;11.530;2022-09-01T22:56:50;95614.00;;;21.30;44.26
56600;BME280;51832;48.152;11.530;2022-09-01T23:01:51;95607.75;;;21.34;44.30
56600;BME280;51832;48.152;11.530;2022-09-01T23:06:52;95611.41;;;21.43;44.01
56600;BME280;51832;48.152;11.530;2022-09-01T23:11:53;95610.72;;;21.33;44.31
56600;BME280;51832;48.152;11.530;2022-09-01T23:16:54;95616.03;;;21.09;44.73
56600;BME280;51832;48.152;11.530;2022-09-01T23:21:54;95614.13;;;20.85;45.41
56600;BME280;51832;48.152;11.530;2022-09-01T23:26:55;95604.28;;;20.81;45.88
56600;BME280;51832;48.152;11.530;2022-09-01T23:31:55;95598.47;;;20.74;46.00
56600;BME280;51832;48.152;11.530;2022-09-01T23:36:56;95594.22;;;20.73;45.77
56600;BME280;51832;48.152;11.530;2022-09-01T23:41:56;95597.69;;;20.73;46.04
56600;BME280;51832;48.152;11.530;2022-09-01T23:46:57;95588.44;;;20.61;46.05
56600;BME280;51832;48.152;11.530;2022-09-01T23:51:57;95588.56;;;20.45;47.04
56600;BME280;51832;48.152;11.530;2022-09-01T23:56:58;95583.41;;;20.54;46.64
